sensor_id;sensor_type;location;lat;lon;timestamp;P1;durP1;ratioP1;P2;durP2;ratioP2
40154;SDS011;25875;48.202;16.334;2023-02-28T00:00:08;10.48;;;8.18;;
40154;SDS011;25875;48.202;16.334;2023-02-28T00:02:38;14.88;;;10.25;;
40154;SDS011;25875;48.202;16.334;2023-02-28T00:05:06;11.43;;;8.35;;
40154;SDS011;25875;48.202;16.334;2023-02-28T00:07:34;11.52;;;8.82;;
40154;SDS011;25875;48.202;16.334;2023-02-28T00:10:01;10.80;;;8.55;;
40154;SDS011;25875;48.202;16.334;2023-02-28T00:12:30;15.95;;;8.85;;
40154;SDS011;25875;48.202;16.334;2023-02-28T00:14:57;14.57;;;9.90;;
40154;SDS011;25875;48.202;16.334;2023-02-28T00:17:27;9.80;;;7.95;;
40154;SDS011;25875;48.202;16.334;2023-02-28T00:19:54;12.90;;;9.13;;
40154;SDS011;25875;48.202;16.334;2023-02-28T00:22:22;10.85;;;9.18;;
40154;SDS011;25875;48.202;16.334;2023-02-28T00:24:49;12.75;;;9.00;;
40154;SDS011;25875;48.202;16.334;2023-02-28T00:27:15;12.02;;;8.73;;
40154;SDS011;25875;48.202;16.334;2023-02-28T00:29:42;11.38;;;8.90;;
40154;SDS011;25875;48.202;16.334;2023-02-28T00:32:09;11.95;;;9.15;;
40154;SDS011;25875;48.202;16.334;2023-02-28T00:34:37;11.25;;;8.77;;
40154;SDS011;25875;48.202;16.334;2023-02-28T00:37:04;11.57;;;8.73;;
40154;SDS011;25875;48.202;16.334;2023-02-28T00:39:33;13.23;;;9.52;;
40154;SDS011;25875;48.202;16.334;2023-02-28T00:42:00;12.48;;;9.50;;
40154;SDS011;25875;48.202;16.334;2023-02-28T00:44:28;13.00;;;9.15;;
40154;SDS011;25875;48.202;16.334;2023-02-28T00:46:55;12.93;;;8.95;;
40154;SDS011;25875;48.202;16.334;2023-02-28T00:49:22;11.40;;;9.07;;
40154;SDS011;25875;48.202;16.334;2023-02-28T00:51:51;10.98;;;8.50;;
40154;SDS011;25875;48.202;16.334;2023-02-28T00:54:18;15.05;;;9.57;;
40154;SDS011;25875;48.202;16.334;2023-02-28T00:56:46;11.52;;;9.45;;
40154;SDS011;25875;48.202;16.334;2023-02-28T00:59:12;13.43;;;10.02;;
40154;SDS011;25875;48.202;16.334;2023-02-28T01:01:40;15.18;;;10.23;;
40154;SDS011;25875;48.202;16.334;2023-02-28T01:04:08;13.63;;;9.55;;
40154;SDS011;25875;48.202;16.334;2023-02-28T01:06:35;16.05;;;10.07;;
40154;SDS011;25875;48.202;16.334;2023-02-28T01:09:05;13.10;;;9.73;;
40154;SDS011;25875;48.202;16.334;2023-02-28T01:11:33;12.75;;;9.10;;
40154;SDS011;25875;48.202;16.334;2023-02-28T01:14:01;12.55;;;9.73;;
40154;SDS011;25875;48.202;16.334;2023-02-28T01:16:29;14.15;;;9.52;;
40154;SDS011;25875;48.202;16.334;2023-02-28T01:18:56;13.23;;;10.10;;
40154;SDS011;25875;48.202;16.334;2023-02-28T01:21:26;12.75;;;9.52;;
40154;SDS011;25875;48.202;16.334;2023-02-28T01:23:56;13.60;;;8.90;;
40154;SDS011;25875;48.202;16.334;2023-02-28T01:26:24;11.60;;;9.07;;
40154;SDS011;25875;48.202;16.334;2023-02-28T01:28:51;11.40;;;9.02;;
40154;SDS011;25875;48.202;16.334;2023-02-28T01:31:19;13.52;;;8.85;;
40154;SDS011;25875;48.202;16.334;2023-02-28T01:33:46;13.13;;;9.30;;
40154;SDS011;25875;48.202;16.334;2023-02-28T01:36:14;13.80;;;9.77;;
40154;SDS011;25875;48.202;16.334;2023-02-28T01:38:43;12.80;;;10.55;;
40154;SDS011;25875;48.202;16.334;2023-02-28T01:41:14;11.40;;;9.35;;
40154;SDS011;25875;48.202;16.334;2023-02-28T01:43:54;13.60;;;9.80;;
40154;SDS011;25875;48.202;16.334;2023-02-28T01:46:23;14.27;;;10.15;;
40154;SDS011;25875;48.202;16.334;2023-02-28T01:48:51;12.05;;;9.40;;
40154;SDS011;25875;48.202;16.334;2023-02-28T01:51:24;10.77;;;8.73;;
40154;SDS011;25875;48.202;16.334;2023-02-28T01:53:56;13.18;;;9.88;;
40154;SDS011;25875;48.202;16.334;2023-02-28T01:56:27;12.23;;;10.00;;
40154;SDS011;25875;48.202;16.334;2023-02-28T01:58:58;14.88;;;10.23;;
40154;SDS011;25875;48.202;16.334;2023-02-28T02:01:25;12.80;;;9.07;;
40154;SDS011;25875;48.202;16.334;2023-02-28T02:03:55;15.07;;;10.45;;
40154;SDS011;25875;48.202;16.334;2023-02-28T02:06:25;12.32;;;9.10;;
40154;SDS011;25875;48.202;16.334;2023-02-28T02:08:54;11.68;;;9.90;;
40154;SDS011;25875;48.202;16.334;2023-02-28T02:11:21;13.60;;;10.32;;
40154;SDS011;25875;48.202;16.334;2023-02-28T02:13:54;14.48;;;10.38;;
40154;SDS011;25875;48.202;16.334;2023-02-28T02:16:40;16.02;;;10.32;;
40154;SDS011;25875;48.202;16.334;2023-02-28T02:19:22;13.15;;;10.07;;
40154;SDS011;25875;48.202;16.334;2023-02-28T02:25:27;13.75;;;10.43;;
40154;SDS011;25875;48.202;16.334;2023-02-28T02:28:13;13.63;;;10.32;;
40154;SDS011;25875;48.202;16.334;2023-02-28T02:31:03;13.52;;;10.38;;
40154;SDS011;25875;48.202;16.334;2023-02-28T02:36:47;13.70;;;9.90;;
40154;SDS011;25875;48.202;16.334;2023-02-28T02:39:19;13.70;;;8.77;;
40154;SDS011;25875;48.202;16.334;2023-02-28T02:41:54;11.75;;;9.18;;
40154;SDS011;25875;48.202;16.334;2023-02-28T02:44:28;10.70;;;9.15;;
40154;SDS011;25875;48.202;16.334;2023-02-28T02:46:59;13.02;;;9.18;;
40154;SDS011;25875;48.202;16.334;2023-02-28T02:49:35;12.63;;;10.05;;
40154;SDS011;25875;48.202;16.334;2023-02-28T02:52:03;12.35;;;8.82;;
40154;SDS011;25875;48.202;16.334;2023-02-28T02:54:35;13.48;;;9.77;;
40154;SDS011;25875;48.202;16.334;2023-02-28T02:57:05;13.65;;;10.90;;
40154;SDS011;25875;48.202;16.334;2023-02-28T02:59:36;14.23;;;9.73;;
40154;SDS011;25875;48.202;16.334;2023-02-28T03:02:07;14.18;;;11.38;;
40154;SDS011;25875;48.202;16.334;2023-02-28T03:04:40;13.13;;;9.75;;
40154;SDS011;25875;48.202;16.334;2023-02-28T03:07:11;16.20;;;10.32;;
40154;SDS011;25875;48.202;16.334;2023-02-28T03:09:38;13.55;;;9.73;;
40154;SDS011;25875;48.202;16.334;2023-02-28T03:12:06;13.88;;;9.70;;
40154;SDS011;25875;48.202;16.334;2023-02-28T03:14:40;12.15;;;10.05;;
40154;SDS011;25875;48.202;16.334;2023-02-28T03:17:22;13.18;;;9.50;;
40154;SDS011;25875;48.202;16.334;2023-02-28T03:20:02;16.63;;;10.90;;
40154;SDS011;25875;48.202;16.334;2023-02-28T03:22:38;13.20;;;10.30;;
40154;SDS011;25875;48.202;16.334;2023-02-28T03:25:17;12.65;;;9.95;;
40154;SDS011;25875;48.202;16.334;2023-02-28T03:27:53;15.32;;;10.15;;
40154;SDS011;25875;48.202;16.334;2023-02-28T03:30:29;13.13;;;9.77;;
40154;SDS011;25875;48.202;16.334;2023-02-28T03:33:03;13.00;;;10.43;;
40154;SDS011;25875;48.202;16.334;2023-02-28T03:35:36;15.45;;;11.82;;
40154;SDS011;25875;48.202;16.334;2023-02-28T03:38:07;12.43;;;9.85;;
40154;SDS011;25875;48.202;16.334;2023-02-28T03:40:39;12.27;;;9.90;;
40154;SDS011;25875;48.202;16.334;2023-02-28T03:43:13;16.48;;;11.07;;
40154;SDS011;25875;48.202;16.334;2023-02-28T03:45:45;13.32;;;10.45;;
40154;SDS011;25875;48.202;16.334;2023-02-28T03:48:18;15.90;;;10.68;;
40154;SDS011;25875;48.202;16.334;2023-02-28T03:50:51;13.85;;;10.75;;
40154;SDS011;25875;48.202;16.334;2023-02-28T03:53:21;13.82;;;10.38;;
40154;SDS011;25875;48.202;16.334;2023-02-28T03:55:53;13.48;;;10.50;;
40154;SDS011;25875;48.202;16.334;2023-02-28T03:58:25;14.32;;;10.35;;
40154;SDS011;25875;48.202;16.334;2023-02-28T04:00:57;14.20;;;10.55;;
40154;SDS011;25875;48.202;16.334;2023-02-28T04:03:33;13.43;;;9.60;;
40154;SDS011;25875;48.202;16.334;2023-02-28T04:06:02;16.10;;;10.88;;
40154;SDS011;25875;48.202;16.334;2023-02-28T04:08:32;12.40;;;9.50;;
40154;SDS011;25875;48.202;16.334;2023-02-28T04:11:00;14.43;;;10.35;;
40154;SDS011;25875;48.202;16.334;2023-02-28T04:13:31;14.98;;;11.00;;
40154;SDS011;25875;48.202;16.334;2023-02-28T04:15:57;15.15;;;10.35;;
40154;SDS011;25875;48.202;16.334;2023-02-28T04:18:24;14.32;;;10.68;;
40154;SDS011;25875;48.202;16.334;2023-02-28T04:20:51;13.77;;;10.23;;
40154;SDS011;25875;48.202;16.334;2023-02-28T04:23:19;14.10;;;10.45;;
40154;SDS011;25875;48.202;16.334;2023-02-28T04:25:47;15.45;;;10.77;;
40154;SDS011;25875;48.202;16.334;2023-02-28T04:28:14;11.60;;;9.55;;
40154;SDS011;25875;48.202;16.334;2023-02-28T04:30:42;12.25;;;9.57;;
40154;SDS011;25875;48.202;16.334;2023-02-28T04:33:08;15.27;;;10.50;;
40154;SDS011;25875;48.202;16.334;2023-02-28T04:35:36;16.10;;;10.48;;
40154;SDS011;25875;48.202;16.334;2023-02-28T04:38:07;14.13;;;10.60;;
40154;SDS011;25875;48.202;16.334;2023-02-28T04:40:35;15.88;;;11.73;;
40154;SDS011;25875;48.202;16.334;2023-02-28T04:43:02;12.50;;;10.02;;
40154;SDS011;25875;48.202;16.334;2023-02-28T04:45:30;14.05;;;10.82;;
40154;SDS011;25875;48.202;16.334;2023-02-28T04:47:59;16.25;;;11.60;;
40154;SDS011;25875;48.202;16.334;2023-02-28T04:50:26;13.43;;;10.45;;
40154;SDS011;25875;48.202;16.334;2023-02-28T04:52:53;15.50;;;10.55;;
40154;SDS011;25875;48.202;16.334;2023-02-28T04:55:20;13.63;;;10.32;;
40154;SDS011;25875;48.202;16.334;2023-02-28T04:57:48;13.02;;;10.18;;
40154;SDS011;25875;48.202;16.334;2023-02-28T05:00:15;14.57;;;11.32;;
40154;SDS011;25875;48.202;16.334;2023-02-28T05:02:42;14.38;;;11.38;;
40154;SDS011;25875;48.202;16.334;2023-02-28T05:05:09;15.93;;;10.50;;
40154;SDS011;25875;48.202;16.334;2023-02-28T05:07:37;11.70;;;10.40;;
40154;SDS011;25875;48.202;16.334;2023-02-28T05:10:04;15.07;;;9.93;;
40154;SDS011;25875;48.202;16.334;2023-02-28T05:12:31;13.05;;;10.80;;
40154;SDS011;25875;48.202;16.334;2023-02-28T05:14:59;17.42;;;11.70;;
40154;SDS011;25875;48.202;16.334;2023-02-28T05:17:27;14.52;;;9.90;;
40154;SDS011;25875;48.202;16.334;2023-02-28T05:19:54;12.88;;;10.23;;
40154;SDS011;25875;48.202;16.334;2023-02-28T05:22:20;13.82;;;11.15;;
40154;SDS011;25875;48.202;16.334;2023-02-28T05:24:47;14.15;;;10.43;;
40154;SDS011;25875;48.202;16.334;2023-02-28T05:27:14;20.92;;;11.68;;
40154;SDS011;25875;48.202;16.334;2023-02-28T05:29:43;13.68;;;10.15;;
40154;SDS011;25875;48.202;16.334;2023-02-28T05:32:11;15.25;;;11.25;;
40154;SDS011;25875;48.202;16.334;2023-02-28T05:34:38;14.57;;;10.00;;
40154;SDS011;25875;48.202;16.334;2023-02-28T05:37:05;19.73;;;12.60;;
40154;SDS011;25875;48.202;16.334;2023-02-28T05:39:33;14.60;;;12.40;;
40154;SDS011;25875;48.202;16.334;2023-02-28T05:42:00;17.40;;;11.57;;
40154;SDS011;25875;48.202;16.334;2023-02-28T05:44:27;15.15;;;11.63;;
40154;SDS011;25875;48.202;16.334;2023-02-28T05:46:54;14.40;;;10.82;;
40154;SDS011;25875;48.202;16.334;2023-02-28T05:49:22;15.27;;;10.57;;
40154;SDS011;25875;48.202;16.334;2023-02-28T05:51:49;13.73;;;10.80;;
40154;SDS011;25875;48.202;16.334;2023-02-28T05:54:16;15.98;;;11.35;;
40154;SDS011;25875;48.202;16.334;2023-02-28T05:56:42;16.63;;;12.60;;
40154;SDS011;25875;48.202;16.334;2023-02-28T05:59:11;16.58;;;12.23;;
40154;SDS011;25875;48.202;16.334;2023-02-28T06:01:38;14.70;;;10.90;;
40154;SDS011;25875;48.202;16.334;2023-02-28T06:04:07;16.55;;;11.43;;
40154;SDS011;25875;48.202;16.334;2023-02-28T06:06:36;13.63;;;11.35;;
40154;SDS011;25875;48.202;16.334;2023-02-28T06:09:04;16.27;;;11.68;;
40154;SDS011;25875;48.202;16.334;2023-02-28T06:11:31;15.10;;;11.77;;
40154;SDS011;25875;48.202;16.334;2023-02-28T06:13:58;13.57;;;10.93;;
40154;SDS011;25875;48.202;16.334;2023-02-28T06:16:27;14.57;;;11.88;;
40154;SDS011;25875;48.202;16.334;2023-02-28T06:18:54;13.32;;;11.32;;
40154;SDS011;25875;48.202;16.334;2023-02-28T06:21:22;15.23;;;11.75;;
40154;SDS011;25875;48.202;16.334;2023-02-28T06:23:51;14.82;;;11.07;;
40154;SDS011;25875;48.202;16.334;2023-02-28T06:26:17;11.68;;;10.23;;
40154;SDS011;25875;48.202;16.334;2023-02-28T06:28:45;13.98;;;11.23;;
40154;SDS011;25875;48.202;16.334;2023-02-28T06:31:12;15.25;;;12.55;;
40154;SDS011;25875;48.202;16.334;2023-02-28T06:33:41;14.40;;;11.50;;
40154;SDS011;25875;48.202;16.334;2023-02-28T06:36:09;16.58;;;11.50;;
40154;SDS011;25875;48.202;16.334;2023-02-28T06:38:38;15.10;;;10.35;;
40154;SDS011;25875;48.202;16.334;2023-02-28T06:41:07;15.38;;;11.35;;
40154;SDS011;25875;48.202;16.334;2023-02-28T06:43:37;16.08;;;10.88;;
40154;SDS011;25875;48.202;16.334;2023-02-28T06:46:06;15.73;;;11.32;;
40154;SDS011;25875;48.202;16.334;2023-02-28T06:48:35;15.43;;;12.52;;
40154;SDS011;25875;48.202;16.334;2023-02-28T06:51:03;14.15;;;10.85;;
40154;SDS011;25875;48.202;16.334;2023-02-28T06:53:31;16.58;;;12.10;;
40154;SDS011;25875;48.202;16.334;2023-02-28T06:55:58;16.00;;;11.05;;
40154;SDS011;25875;48.202;16.334;2023-02-28T06:58:27;15.75;;;12.40;;
40154;SDS011;25875;48.202;16.334;2023-02-28T07:00:53;17.55;;;11.95;;
40154;SDS011;25875;48.202;16.334;2023-02-28T07:03:21;15.18;;;11.98;;
40154;SDS011;25875;48.202;16.334;2023-02-28T07:05:48;14.43;;;11.70;;
40154;SDS011;25875;48.202;16.334;2023-02-28T07:08:16;19.58;;;13.68;;
40154;SDS011;25875;48.202;16.334;2023-02-28T07:10:43;19.60;;;12.90;;
40154;SDS011;25875;48.202;16.334;2023-02-28T07:13:10;18.17;;;13.68;;
40154;SDS011;25875;48.202;16.334;2023-02-28T07:15:39;19.30;;;12.75;;
40154;SDS011;25875;48.202;16.334;2023-02-28T07:18:05;15.57;;;12.57;;
40154;SDS011;25875;48.202;16.334;2023-02-28T07:20:32;16.25;;;13.60;;
40154;SDS011;25875;48.202;16.334;2023-02-28T07:22:59;17.70;;;14.57;;
40154;SDS011;25875;48.202;16.334;2023-02-28T07:25:26;18.50;;;13.75;;
40154;SDS011;25875;48.202;16.334;2023-02-28T07:27:54;21.27;;;14.05;;
40154;SDS011;25875;48.202;16.334;2023-02-28T07:30:22;18.80;;;14.10;;
40154;SDS011;25875;48.202;16.334;2023-02-28T07:32:50;19.75;;;13.82;;
40154;SDS011;25875;48.202;16.334;2023-02-28T07:35:17;18.48;;;14.35;;
40154;SDS011;25875;48.202;16.334;2023-02-28T07:37:44;21.85;;;14.07;;
40154;SDS011;25875;48.202;16.334;2023-02-28T07:40:12;17.45;;;13.32;;
40154;SDS011;25875;48.202;16.334;2023-02-28T07:42:40;18.10;;;14.02;;
40154;SDS011;25875;48.202;16.334;2023-02-28T07:45:08;22.05;;;15.18;;
40154;SDS011;25875;48.202;16.334;2023-02-28T07:47:36;18.27;;;13.43;;
40154;SDS011;25875;48.202;16.334;2023-02-28T07:50:06;17.55;;;13.90;;
40154;SDS011;25875;48.202;16.334;2023-02-28T07:52:34;16.88;;;13.95;;
40154;SDS011;25875;48.202;16.334;2023-02-28T07:55:02;16.67;;;12.93;;
40154;SDS011;25875;48.202;16.334;2023-02-28T07:57:30;18.33;;;14.18;;
40154;SDS011;25875;48.202;16.334;2023-02-28T07:59:57;20.10;;;14.23;;
40154;SDS011;25875;48.202;16.334;2023-02-28T08:02:24;19.33;;;14.50;;
40154;SDS011;25875;48.202;16.334;2023-02-28T08:04:51;18.20;;;13.13;;
40154;SDS011;25875;48.202;16.334;2023-02-28T08:07:19;16.70;;;13.52;;
40154;SDS011;25875;48.202;16.334;2023-02-28T08:09:46;21.10;;;14.80;;
40154;SDS011;25875;48.202;16.334;2023-02-28T08:12:13;16.75;;;13.93;;
40154;SDS011;25875;48.202;16.334;2023-02-28T08:14:40;17.10;;;13.95;;
40154;SDS011;25875;48.202;16.334;2023-02-28T08:17:07;17.63;;;13.40;;
40154;SDS011;25875;48.202;16.334;2023-02-28T08:19:34;19.33;;;14.70;;
40154;SDS011;25875;48.202;16.334;2023-02-28T08:22:01;17.98;;;14.50;;
40154;SDS011;25875;48.202;16.334;2023-02-28T08:24:29;16.67;;;13.20;;
40154;SDS011;25875;48.202;16.334;2023-02-28T08:26:56;18.90;;;15.07;;
40154;SDS011;25875;48.202;16.334;2023-02-28T08:29:23;18.25;;;13.05;;
40154;SDS011;25875;48.202;16.334;2023-02-28T08:31:50;20.17;;;13.65;;
40154;SDS011;25875;48.202;16.334;2023-02-28T08:34:17;15.75;;;13.55;;
40154;SDS011;25875;48.202;16.334;2023-02-28T08:36:44;16.35;;;14.38;;
40154;SDS011;25875;48.202;16.334;2023-02-28T08:39:11;18.15;;;13.23;;
40154;SDS011;25875;48.202;16.334;2023-02-28T08:41:39;17.45;;;13.85;;
40154;SDS011;25875;48.202;16.334;2023-02-28T08:44:09;15.95;;;13.55;;
40154;SDS011;25875;48.202;16.334;2023-02-28T08:46:36;17.77;;;13.75;;
40154;SDS011;25875;48.202;16.334;2023-02-28T08:49:04;16.15;;;12.70;;
40154;SDS011;25875;48.202;16.334;2023-02-28T08:51:32;18.55;;;13.82;;
40154;SDS011;25875;48.202;16.334;2023-02-28T08:54:01;15.25;;;12.57;;
40154;SDS011;25875;48.202;16.334;2023-02-28T08:56:28;21.50;;;14.13;;
40154;SDS011;25875;48.202;16.334;2023-02-28T08:58:57;15.70;;;12.48;;
40154;SDS011;25875;48.202;16.334;2023-02-28T09:01:25;16.70;;;13.88;;
40154;SDS011;25875;48.202;16.334;2023-02-28T09:03:53;16.90;;;13.63;;
40154;SDS011;25875;48.202;16.334;2023-02-28T09:06:21;16.38;;;13.02;;
40154;SDS011;25875;48.202;16.334;2023-02-28T09:08:50;17.80;;;12.18;;
40154;SDS011;25875;48.202;16.334;2023-02-28T09:11:17;17.27;;;13.23;;
40154;SDS011;25875;48.202;16.334;2023-02-28T09:13:44;14.00;;;12.02;;
40154;SDS011;25875;48.202;16.334;2023-02-28T09:16:14;15.50;;;12.57;;
40154;SDS011;25875;48.202;16.334;2023-02-28T09:18:42;16.85;;;13.27;;
40154;SDS011;25875;48.202;16.334;2023-02-28T09:21:11;16.52;;;11.35;;
40154;SDS011;25875;48.202;16.334;2023-02-28T09:23:39;18.02;;;13.50;;
40154;SDS011;25875;48.202;16.334;2023-02-28T09:26:07;15.00;;;12.32;;
40154;SDS011;25875;48.202;16.334;2023-02-28T09:28:34;15.25;;;11.75;;
40154;SDS011;25875;48.202;16.334;2023-02-28T09:31:01;16.52;;;12.80;;
40154;SDS011;25875;48.202;16.334;2023-02-28T09:33:31;17.77;;;13.23;;
40154;SDS011;25875;48.202;16.334;2023-02-28T09:36:00;16.02;;;12.35;;
40154;SDS011;25875;48.202;16.334;2023-02-28T09:38:28;17.02;;;12.88;;
40154;SDS011;25875;48.202;16.334;2023-02-28T09:40:56;15.02;;;12.20;;
40154;SDS011;25875;48.202;16.334;2023-02-28T09:43:26;13.75;;;11.80;;
40154;SDS011;25875;48.202;16.334;2023-02-28T09:45:57;18.35;;;13.52;;
40154;SDS011;25875;48.202;16.334;2023-02-28T09:48:31;17.25;;;13.05;;
40154;SDS011;25875;48.202;16.334;2023-02-28T09:51:02;14.35;;;12.60;;
40154;SDS011;25875;48.202;16.334;2023-02-28T09:53:32;14.25;;;12.35;;
40154;SDS011;25875;48.202;16.334;2023-02-28T09:56:01;14.25;;;12.27;;
40154;SDS011;25875;48.202;16.334;2023-02-28T09:58:34;14.65;;;10.95;;
40154;SDS011;25875;48.202;16.334;2023-02-28T10:01:09;14.45;;;12.73;;
40154;SDS011;25875;48.202;16.334;2023-02-28T10:03:48;18.27;;;12.48;;
40154;SDS011;25875;48.202;16.334;2023-02-28T10:06:22;16.05;;;13.35;;
40154;SDS011;25875;48.202;16.334;2023-02-28T10:08:55;16.23;;;12.40;;
40154;SDS011;25875;48.202;16.334;2023-02-28T10:11:27;19.23;;;13.45;;
40154;SDS011;25875;48.202;16.334;2023-02-28T10:13:56;15.68;;;12.70;;
40154;SDS011;25875;48.202;16.334;2023-02-28T10:19:02;16.67;;;12.35;;
40154;SDS011;25875;48.202;16.334;2023-02-28T10:21:33;14.07;;;12.18;;
40154;SDS011;25875;48.202;16.334;2023-02-28T10:24:04;15.85;;;13.88;;
40154;SDS011;25875;48.202;16.334;2023-02-28T10:26:40;15.73;;;12.73;;
40154;SDS011;25875;48.202;16.334;2023-02-28T10:29:13;15.60;;;13.77;;
40154;SDS011;25875;48.202;16.334;2023-02-28T10:31:40;16.17;;;11.90;;
40154;SDS011;25875;48.202;16.334;2023-02-28T10:34:09;17.48;;;13.70;;
40154;SDS011;25875;48.202;16.334;2023-02-28T10:36:40;15.27;;;12.25;;
40154;SDS011;25875;48.202;16.334;2023-02-28T10:42:18;14.57;;;12.73;;
40154;SDS011;25875;48.202;16.334;2023-02-28T10:44:46;15.73;;;12.68;;
40154;SDS011;25875;48.202;16.334;2023-02-28T10:47:18;16.70;;;13.57;;
40154;SDS011;25875;48.202;16.334;2023-02-28T10:49:48;15.75;;;12.30;;
40154;SDS011;25875;48.202;16.334;2023-02-28T10:52:32;18.15;;;13.45;;
40154;SDS011;25875;48.202;16.334;2023-02-28T10:55:16;16.25;;;13.80;;
40154;SDS011;25875;48.202;16.334;2023-02-28T10:57:48;15.65;;;14.05;;
40154;SDS011;25875;48.202;16.334;2023-02-28T11:00:18;15.30;;;13.70;;
40154;SDS011;25875;48.202;16.334;2023-02-28T11:02:47;18.27;;;13.20;;
40154;SDS011;25875;48.202;16.334;2023-02-28T11:05:27;16.58;;;13.27;;
40154;SDS011;25875;48.202;16.334;2023-02-28T11:07:56;16.75;;;13.13;;
40154;SDS011;25875;48.202;16.334;2023-02-28T11:10:26;17.58;;;13.43;;
40154;SDS011;25875;48.202;16.334;2023-02-28T11:12:57;17.27;;;14.48;;
40154;SDS011;25875;48.202;16.334;2023-02-28T11:15:25;16.33;;;14.32;;
40154;SDS011;25875;48.202;16.334;2023-02-28T11:17:54;19.55;;;13.52;;
40154;SDS011;25875;48.202;16.334;2023-02-28T11:20:26;19.52;;;14.10;;
40154;SDS011;25875;48.202;16.334;2023-02-28T11:22:55;14.93;;;12.88;;
40154;SDS011;25875;48.202;16.334;2023-02-28T11:25:24;16.55;;;13.80;;
40154;SDS011;25875;48.202;16.334;2023-02-28T11:27:53;15.65;;;13.23;;
40154;SDS011;25875;48.202;16.334;2023-02-28T11:30:23;14.65;;;12.25;;
40154;SDS011;25875;48.202;16.334;2023-02-28T11:32:52;13.93;;;12.48;;
40154;SDS011;25875;48.202;16.334;2023-02-28T11:35:21;20.42;;;16.35;;
40154;SDS011;25875;48.202;16.334;2023-02-28T11:40:24;17.05;;;12.57;;
40154;SDS011;25875;48.202;16.334;2023-02-28T11:43:11;13.70;;;11.98;;
40154;SDS011;25875;48.202;16.334;2023-02-28T11:45:55;18.30;;;12.45;;
40154;SDS011;25875;48.202;16.334;2023-02-28T11:48:32;14.95;;;13.35;;
40154;SDS011;25875;48.202;16.334;2023-02-28T11:51:12;16.38;;;13.02;;
40154;SDS011;25875;48.202;16.334;2023-02-28T11:54:03;15.10;;;12.82;;
40154;SDS011;25875;48.202;16.334;2023-02-28T11:56:59;13.73;;;12.00;;
40154;SDS011;25875;48.202;16.334;2023-02-28T11:59:38;13.50;;;12.10;;
40154;SDS011;25875;48.202;16.334;2023-02-28T12:02:19;15.20;;;12.18;;
40154;SDS011;25875;48.202;16.334;2023-02-28T12:04:54;13.75;;;11.27;;
40154;SDS011;25875;48.202;16.334;2023-02-28T12:07:38;14.18;;;12.23;;
40154;SDS011;25875;48.202;16.334;2023-02-28T12:10:19;12.82;;;11.57;;
40154;SDS011;25875;48.202;16.334;2023-02-28T12:12:51;13.65;;;11.55;;
40154;SDS011;25875;48.202;16.334;2023-02-28T12:21:31;13.67;;;11.57;;
40154;SDS011;25875;48.202;16.334;2023-02-28T12:24:16;13.25;;;11.85;;
40154;SDS011;25875;48.202;16.334;2023-02-28T12:26:56;13.63;;;12.23;;
40154;SDS011;25875;48.202;16.334;2023-02-28T12:29:28;12.63;;;11.30;;
40154;SDS011;25875;48.202;16.334;2023-02-28T12:31:58;12.57;;;11.23;;
40154;SDS011;25875;48.202;16.334;2023-02-28T12:37:01;13.10;;;10.80;;
40154;SDS011;25875;48.202;16.334;2023-02-28T12:39:36;12.20;;;11.00;;
40154;SDS011;25875;48.202;16.334;2023-02-28T12:42:11;13.05;;;11.65;;
40154;SDS011;25875;48.202;16.334;2023-02-28T12:44:44;14.25;;;11.77;;
40154;SDS011;25875;48.202;16.334;2023-02-28T12:47:16;14.55;;;11.43;;
40154;SDS011;25875;48.202;16.334;2023-02-28T12:49:52;13.75;;;11.73;;
40154;SDS011;25875;48.202;16.334;2023-02-28T12:52:25;12.52;;;10.35;;
40154;SDS011;25875;48.202;16.334;2023-02-28T12:55:03;12.00;;;10.52;;
40154;SDS011;25875;48.202;16.334;2023-02-28T12:57:36;13.05;;;10.68;;
40154;SDS011;25875;48.202;16.334;2023-02-28T13:00:10;12.82;;;11.02;;
40154;SDS011;25875;48.202;16.334;2023-02-28T13:06:01;13.55;;;10.60;;
40154;SDS011;25875;48.202;16.334;2023-02-28T13:11:31;12.55;;;9.82;;
40154;SDS011;25875;48.202;16.334;2023-02-28T13:14:05;11.27;;;9.65;;
40154;SDS011;25875;48.202;16.334;2023-02-28T13:16:58;10.45;;;9.35;;
40154;SDS011;25875;48.202;16.334;2023-02-28T13:19:28;13.32;;;10.20;;
40154;SDS011;25875;48.202;16.334;2023-02-28T13:21:59;12.82;;;9.27;;
40154;SDS011;25875;48.202;16.334;2023-02-28T13:24:37;12.73;;;10.23;;
40154;SDS011;25875;48.202;16.334;2023-02-28T13:33:25;10.55;;;8.70;;
40154;SDS011;25875;48.202;16.334;2023-02-28T13:36:08;11.10;;;9.73;;
40154;SDS011;25875;48.202;16.334;2023-02-28T13:38:38;11.13;;;9.43;;
40154;SDS011;25875;48.202;16.334;2023-02-28T13:49:47;11.07;;;8.35;;
40154;SDS011;25875;48.202;16.334;2023-02-28T13:52:18;10.43;;;9.32;;
40154;SDS011;25875;48.202;16.334;2023-02-28T13:54:56;10.43;;;9.32;;
40154;SDS011;25875;48.202;16.334;2023-02-28T13:57:41;10.77;;;8.43;;
40154;SDS011;25875;48.202;16.334;2023-02-28T14:00:28;12.73;;;8.63;;
40154;SDS011;25875;48.202;16.334;2023-02-28T14:03:26;14.45;;;9.82;;
40154;SDS011;25875;48.202;16.334;2023-02-28T14:06:14;10.00;;;8.27;;
40154;SDS011;25875;48.202;16.334;2023-02-28T14:08:47;10.73;;;8.23;;
40154;SDS011;25875;48.202;16.334;2023-02-28T14:11:25;11.60;;;9.52;;
40154;SDS011;25875;48.202;16.334;2023-02-28T14:13:55;11.88;;;9.10;;
40154;SDS011;25875;48.202;16.334;2023-02-28T14:16:23;9.35;;;7.80;;
40154;SDS011;25875;48.202;16.334;2023-02-28T14:18:55;12.20;;;10.05;;
40154;SDS011;25875;48.202;16.334;2023-02-28T14:21:26;11.90;;;9.18;;
40154;SDS011;25875;48.202;16.334;2023-02-28T14:27:07;10.23;;;9.18;;
40154;SDS011;25875;48.202;16.334;2023-02-28T14:29:47;12.82;;;10.45;;
40154;SDS011;25875;48.202;16.334;2023-02-28T14:32:50;11.00;;;9.40;;
40154;SDS011;25875;48.202;16.334;2023-02-28T14:35:35;10.38;;;8.95;;
40154;SDS011;25875;48.202;16.334;2023-02-28T14:38:16;13.10;;;9.48;;
40154;SDS011;25875;48.202;16.334;2023-02-28T14:40:46;11.68;;;9.48;;
40154;SDS011;25875;48.202;16.334;2023-02-28T14:43:18;15.90;;;10.85;;
40154;SDS011;25875;48.202;16.334;2023-02-28T14:45:49;11.98;;;9.73;;
40154;SDS011;25875;48.202;16.334;2023-02-28T14:48:22;12.40;;;10.18;;
40154;SDS011;25875;48.202;16.334;2023-02-28T14:50:51;19.02;;;10.25;;
40154;SDS011;25875;48.202;16.334;2023-02-28T14:53:28;11.48;;;9.98;;
40154;SDS011;25875;48.202;16.334;2023-02-28T14:56:01;14.27;;;10.40;;
40154;SDS011;25875;48.202;16.334;2023-02-28T14:58:29;10.60;;;8.70;;
40154;SDS011;25875;48.202;16.334;2023-02-28T15:00:58;11.38;;;9.98;;
40154;SDS011;25875;48.202;16.334;2023-02-28T15:03:30;14.65;;;10.60;;
40154;SDS011;25875;48.202;16.334;2023-02-28T15:05:58;12.82;;;9.07;;
40154;SDS011;25875;48.202;16.334;2023-02-28T15:08:28;11.15;;;9.00;;
40154;SDS011;25875;48.202;16.334;2023-02-28T15:11:01;11.05;;;9.85;;
40154;SDS011;25875;48.202;16.334;2023-02-28T15:13:31;11.32;;;9.40;;
40154;SDS011;25875;48.202;16.334;2023-02-28T15:16:04;12.18;;;9.90;;
40154;SDS011;25875;48.202;16.334;2023-02-28T15:18:37;11.35;;;9.05;;
40154;SDS011;25875;48.202;16.334;2023-02-28T15:21:11;16.70;;;13.05;;